| time (UTC) | temp F | wind direction | speed MPH | gust MPH | rain 1hr in | rain 24hr in | rain mn in | humidity % | barometer mb |
| 20260905032010 | 80 | 85 | 1.0 | 4.0 | 0.00 | 0.24 | 0.24 | 83 | 1013.1 |
| 20260905031511 | 80 | 86 | 1.0 | 4.0 | 0.00 | 0.24 | 0.24 | 83 | 1013.1 |
| 20260905031012 | 80 | 349 | 1.0 | 3.0 | 0.00 | 0.24 | 0.24 | 83 | 1013.1 |
| 20260905030505 | 80 | 353 | 1.0 | 2.0 | 0.00 | 0.24 | 0.24 | 83 | 1013.0 |
| 20260905025958 | 80 | 95 | 0.0 | 1.0 | 0.00 | 0.24 | 0.24 | 83 | 1013.0 |
| 20260905025728 | 80 | 314 | 1.0 | 2.0 | 0.00 | 0.24 | 0.24 | 82 | 1013.0 |
| 20260905024955 | 81 | 53 | 1.0 | 3.0 | 0.00 | 0.24 | 0.24 | 82 | 1012.9 |
| 20260905024439 | 81 | 347 | 1.0 | 3.0 | 0.00 | 0.24 | 0.24 | 81 | 1012.9 |
| 20260905023941 | 81 | 354 | 1.0 | 2.0 | 0.00 | 0.24 | 0.24 | 81 | 1012.8 |
| 20260905023440 | 81 | 79 | 1.0 | 3.0 | 0.00 | 0.24 | 0.24 | 81 | 1012.8 |
| 20260905023205 | 81 | 81 | 1.0 | 3.0 | 0.00 | 0.24 | 0.24 | 81 | 1012.7 |
| 20260905022440 | 81 | 326 | 0.0 | 2.0 | 0.00 | 0.24 | 0.24 | 81 | 1012.6 |
| 20260905021940 | 81 | 0 | 0.0 | 2.0 | 0.00 | 0.24 | 0.24 | 80 | 1012.6 |
| 20260905021440 | 81 | 95 | 1.0 | 2.0 | 0.00 | 0.24 | 0.24 | 81 | 1012.6 |
| 20260905020940 | 82 | 340 | 1.0 | 2.0 | 0.00 | 0.24 | 0.24 | 80 | 1012.5 |
| 20260905020440 | 82 | 0 | 1.0 | 3.0 | 0.00 | 0.24 | 0.24 | 80 | 1012.5 |
| 20260905020212 | 82 | 117 | 1.0 | 3.0 | 0.00 | 0.24 | 0.24 | 81 | 1012.5 |
| 20260905015439 | 82 | 139 | 1.0 | 2.0 | 0.00 | 0.24 | 0.24 | 81 | 1012.3 |
| 20260905015205 | 82 | 294 | 0.0 | 2.0 | 0.00 | 0.24 | 0.24 | 82 | 1012.3 |
| 20260905014439 | 82 | 0 | 0.0 | 1.0 | 0.00 | 0.24 | 0.24 | 82 | 1012.3 |
| 20260905013939 | 82 | 6 | 1.0 | 2.0 | 0.00 | 0.24 | 0.24 | 82 | 1012.3 |
| 20260905013709 | 82 | 0 | 1.0 | 2.0 | 0.00 | 0.24 | 0.24 | 81 | 1012.2 |
| 20260905012940 | 82 | 106 | 1.0 | 2.0 | 0.00 | 0.24 | 0.24 | 81 | 1012.2 |
| 20260905012440 | 82 | 166 | 1.0 | 2.0 | 0.00 | 0.24 | 0.24 | 81 | 1012.1 |
| 20260905011943 | 82 | 127 | 0.0 | 2.0 | 0.00 | 0.24 | 0.24 | 82 | 1012.1 |
| 20260905011938 | 82 | 0 | 0.0 | 1.0 | 0.00 | 0.24 | 0.24 | 82 | 1012.1 |
| 20260905010940 | 82 | 0 | 0.0 | 2.0 | 0.00 | 0.24 | 0.24 | 81 | 1012.0 |
| 20260905010659 | 82 | 117 | 1.0 | 2.0 | 0.00 | 0.24 | 0.24 | 81 | 1012.0 |
| 20260905005929 | 82 | 174 | 1.0 | 2.0 | 0.00 | 0.24 | 0.24 | 80 | 1011.9 |
| 20260905005703 | 83 | 160 | 1.0 | 3.0 | 0.00 | 0.24 | 0.24 | 80 | 1011.9 |
| 20260905004929 | 83 | 0 | 1.0 | 3.0 | 0.00 | 0.24 | 0.24 | 80 | 1011.8 |
| 20260905004430 | 83 | 155 | 1.0 | 4.0 | 0.00 | 0.24 | 0.24 | 80 | 1011.7 |
| 20260905004425 | 83 | 141 | 1.0 | 4.0 | 0.00 | 0.24 | 0.24 | 79 | 1011.7 |
| 20260905003430 | 83 | 319 | 1.0 | 2.0 | 0.00 | 0.24 | 0.24 | 80 | 1011.7 |
| 20260905002929 | 82 | 48 | 1.0 | 2.0 | 0.00 | 0.24 | 0.24 | 80 | 1011.7 |
| 20260905002429 | 82 | 316 | 1.0 | 3.0 | 0.00 | 0.24 | 0.24 | 80 | 1011.7 |
| 20260905002153 | 82 | 91 | 1.0 | 3.0 | 0.00 | 0.24 | 0.24 | 80 | 1011.6 |
| 20260905001428 | 82 | 246 | 1.0 | 2.0 | 0.00 | 0.24 | 0.24 | 81 | 1011.6 |
| 20260905000928 | 82 | 0 | 1.0 | 2.0 | 0.00 | 0.24 | 0.24 | 81 | 1011.5 |
| 20260905000427 | 82 | 77 | 1.0 | 2.0 | 0.00 | 0.24 | 0.24 | 81 | 1011.5 |
| 20260904235928 | 82 | 0 | 1.0 | 4.0 | 0.00 | 0.24 | 0.24 | 81 | 1011.5 |
| 20260904235428 | 82 | 155 | 1.0 | 4.0 | 0.00 | 0.24 | 0.24 | 80 | 1011.6 |
| 20260904234927 | 82 | 140 | 1.0 | 4.0 | 0.04 | 0.24 | 0.24 | 80 | 1011.6 |
| 20260904234429 | 81 | 144 | 1.0 | 3.0 | 0.07 | 0.24 | 0.24 | 80 | 1011.6 |
| 20260904233930 | 81 | 104 | 1.0 | 2.0 | 0.09 | 0.24 | 0.24 | 81 | 1011.6 |
| 20260904233700 | 80 | 122 | 1.0 | 2.0 | 0.21 | 0.24 | 0.24 | 81 | 1011.5 |
| 20260904232928 | 80 | 77 | 1.0 | 3.0 | 0.21 | 0.24 | 0.24 | 82 | 1011.5 |
| 20260904232428 | 80 | 62 | 1.0 | 3.0 | 0.21 | 0.24 | 0.24 | 80 | 1011.6 |
| 20260904231927 | 80 | 0 | 1.0 | 3.0 | 0.21 | 0.24 | 0.24 | 80 | 1011.6 |
| 20260904231425 | 79 | 91 | 1.0 | 3.0 | 0.21 | 0.24 | 0.24 | 80 | 1011.6 |
| 20260904230924 | 79 | 277 | 1.0 | 3.0 | 0.21 | 0.24 | 0.24 | 81 | 1011.5 |
| 20260904230426 | 78 | 97 | 1.0 | 5.0 | 0.21 | 0.24 | 0.24 | 82 | 1011.6 |
| 20260904225923 | 79 | 174 | 2.0 | 8.0 | 0.21 | 0.24 | 0.24 | 83 | 1011.6 |
| 20260904225422 | 79 | 104 | 3.0 | 9.0 | 0.21 | 0.24 | 0.24 | 83 | 1011.6 |
| 20260904224922 | 80 | 205 | 3.0 | 10.0 | 0.17 | 0.20 | 0.19 | 79 | 1011.7 |
| 20260904224424 | 82 | 110 | 5.0 | 12.0 | 0.13 | 0.16 | 0.16 | 83 | 1011.6 |
| 20260904223923 | 88 | 268 | 5.0 | 12.0 | 0.12 | 0.15 | 0.08 | 75 | 1011.7 |
| 20260904223423 | 91 | 12 | 4.0 | 12.0 | 0.00 | 0.03 | 0.03 | 59 | 1011.5 |
| 20260904222923 | 95 | 242 | 3.0 | 12.0 | 0.00 | 0.03 | 0.03 | 55 | 1011.4 |
| 20260904222423 | 97 | 301 | 2.0 | 8.0 | 0.00 | 0.03 | 0.03 | 44 | 1011.2 |
| 20260904221923 | 97 | 229 | 2.0 | 8.0 | 0.00 | 0.03 | 0.03 | 44 | 1011.2 |
| 20260904221419 | 97 | 147 | 2.0 | 8.0 | 0.00 | 0.03 | 0.03 | 45 | 1011.0 |
| 20260904220919 | 97 | 207 | 2.0 | 7.0 | 0.00 | 0.03 | 0.03 | 45 | 1011.1 |
| 20260904220420 | 97 | 11 | 2.0 | 6.0 | 0.00 | 0.03 | 0.03 | 45 | 1011.0 |
| 20260904215919 | 97 | 222 | 2.0 | 6.0 | 0.00 | 0.03 | 0.03 | 44 | 1011.1 |
| 20260904215421 | 97 | 238 | 2.0 | 9.0 | 0.00 | 0.03 | 0.03 | 44 | 1011.2 |
| 20260904215205 | 97 | 144 | 2.0 | 9.0 | 0.00 | 0.03 | 0.03 | 45 | 1011.3 |
| 20260904214417 | 96 | 227 | 2.0 | 7.0 | 0.00 | 0.03 | 0.03 | 46 | 1011.5 |
| 20260904213917 | 96 | 2 | 2.0 | 8.0 | 0.00 | 0.03 | 0.03 | 44 | 1011.5 |
| 20260904213416 | 96 | 186 | 2.0 | 8.0 | 0.00 | 0.03 | 0.03 | 45 | 1011.6 |
| 20260904212917 | 96 | 109 | 2.0 | 6.0 | 0.00 | 0.03 | 0.03 | 45 | 1011.6 |
| 20260904212418 | 96 | 253 | 2.0 | 6.0 | 0.00 | 0.03 | 0.03 | 45 | 1011.7 |
| 20260904211917 | 95 | 130 | 2.0 | 8.0 | 0.00 | 0.03 | 0.03 | 48 | 1011.9 |
| 20260904211417 | 96 | 0 | 2.0 | 8.0 | 0.00 | 0.03 | 0.03 | 47 | 1011.8 |
| 20260904210918 | 95 | 311 | 2.0 | 7.0 | 0.00 | 0.03 | 0.03 | 49 | 1011.9 |
| 20260904210418 | 96 | 292 | 2.0 | 7.0 | 0.00 | 0.03 | 0.03 | 48 | 1011.8 |
| 20260904205917 | 96 | 183 | 2.0 | 7.0 | 0.00 | 0.03 | 0.03 | 47 | 1011.9 |
| 20260904205417 | 95 | 176 | 2.0 | 6.0 | 0.00 | 0.03 | 0.03 | 49 | 1011.9 |
| 20260904204914 | 94 | 202 | 3.0 | 7.0 | 0.00 | 0.03 | 0.03 | 49 | 1012.0 |
| 20260904204414 | 95 | 230 | 3.0 | 7.0 | 0.00 | 0.03 | 0.03 | 49 | 1012.2 |
| 20260904203916 | 95 | 75 | 2.0 | 7.0 | 0.00 | 0.03 | 0.03 | 48 | 1012.3 |
| 20260904203414 | 95 | 172 | 2.0 | 7.0 | 0.00 | 0.03 | 0.03 | 49 | 1012.3 |
| 20260904202915 | 95 | 285 | 2.0 | 7.0 | 0.00 | 0.03 | 0.03 | 49 | 1012.4 |
| 20260904202656 | 94 | 218 | 2.0 | 7.0 | 0.00 | 0.03 | 0.03 | 49 | 1012.5 |
| 20260904201916 | 94 | 272 | 2.0 | 7.0 | 0.00 | 0.03 | 0.03 | 51 | 1012.6 |
| 20260904201809 | 93 | 24 | 2.0 | 7.0 | 0.00 | 0.03 | 0.03 | 54 | 1012.7 |
| 20260904201519 | 93 | 191 | 2.0 | 5.0 | 0.00 | 0.03 | 0.03 | 55 | 1012.7 |
| 20260904201500 | 94 | 273 | 2.0 | 7.0 | 0.00 | 0.03 | 0.03 | 52 | 1012.6 |
| 20260904195915 | 93 | 270 | 2.0 | 5.0 | 0.00 | 0.03 | 0.03 | 54 | 1012.8 |
| 20260904195656 | 94 | 103 | 2.0 | 5.0 | 0.00 | 0.03 | 0.03 | 54 | 1012.8 |
| 20260904194915 | 94 | 254 | 2.0 | 8.0 | 0.00 | 0.03 | 0.03 | 53 | 1012.8 |
| 20260904194416 | 93 | 290 | 3.0 | 8.0 | 0.00 | 0.03 | 0.03 | 54 | 1012.8 |
| 20260904193913 | 93 | 205 | 3.0 | 7.0 | 0.00 | 0.03 | 0.03 | 56 | 1012.9 |
| 20260904193413 | 92 | 255 | 3.0 | 9.0 | 0.00 | 0.03 | 0.03 | 57 | 1013.0 |
| 20260904192910 | 92 | 258 | 3.0 | 9.0 | 0.00 | 0.03 | 0.03 | 57 | 1013.0 |
| 20260904192656 | 92 | 277 | 3.0 | 7.0 | 0.00 | 0.03 | 0.03 | 57 | 1013.1 |
| 20260904191911 | 92 | 274 | 3.0 | 8.0 | 0.00 | 0.03 | 0.03 | 58 | 1013.1 |
| 20260904191407 | 92 | 307 | 3.0 | 8.0 | 0.00 | 0.03 | 0.03 | 58 | 1013.2 |
| 20260904190906 | 91 | 347 | 3.0 | 8.0 | 0.00 | 0.03 | 0.03 | 59 | 1013.3 |
| 20260904190407 | 90 | 203 | 3.0 | 8.0 | 0.00 | 0.03 | 0.03 | 60 | 1013.4 |
| 20260904185907 | 90 | 202 | 3.0 | 8.0 | 0.00 | 0.03 | 0.03 | 61 | 1013.5 |
| 20260904185408 | 89 | 62 | 3.0 | 9.0 | 0.00 | 0.03 | 0.03 | 61 | 1013.6 |
| 20260904184908 | 89 | 249 | 3.0 | 9.0 | 0.00 | 0.03 | 0.03 | 61 | 1013.6 |
| 20260904184407 | 89 | 237 | 2.0 | 9.0 | 0.00 | 0.03 | 0.03 | 63 | 1013.7 |
| 20260904183907 | 89 | 231 | 3.0 | 7.0 | 0.00 | 0.03 | 0.03 | 62 | 1013.7 |
| 20260904183655 | 88 | 199 | 3.0 | 6.0 | 0.00 | 0.03 | 0.03 | 64 | 1013.8 |
| 20260904182907 | 87 | 228 | 3.0 | 7.0 | 0.00 | 0.03 | 0.03 | 64 | 1013.9 |
| 20260904182408 | 87 | 197 | 3.0 | 7.0 | 0.00 | 0.03 | 0.03 | 64 | 1013.9 |
| 20260904181904 | 88 | 215 | 2.0 | 6.0 | 0.00 | 0.03 | 0.03 | 64 | 1013.9 |
| 20260904181405 | 88 | 177 | 2.0 | 5.0 | 0.00 | 0.03 | 0.03 | 63 | 1013.9 |
| 20260904180937 | 87 | 327 | 2.0 | 6.0 | 0.00 | 0.03 | 0.03 | 64 | 1014.0 |
| 20260904180927 | 87 | 243 | 2.0 | 6.0 | 0.00 | 0.03 | 0.03 | 63 | 1013.9 |
| 20260904175901 | 87 | 210 | 2.0 | 6.0 | 0.00 | 0.03 | 0.03 | 63 | 1014.0 |
| 20260904175401 | 87 | 107 | 3.0 | 9.0 | 0.00 | 0.03 | 0.03 | 63 | 1014.1 |
| 20260904174902 | 87 | 236 | 4.0 | 9.0 | 0.00 | 0.03 | 0.03 | 62 | 1014.1 |
| 20260904174401 | 87 | 196 | 3.0 | 6.0 | 0.00 | 0.03 | 0.03 | 62 | 1014.1 |
| 20260904173902 | 87 | 206 | 2.0 | 6.0 | 0.00 | 0.03 | 0.03 | 64 | 1014.2 |
| 20260904173401 | 88 | 190 | 2.0 | 5.0 | 0.00 | 0.03 | 0.03 | 61 | 1014.2 |
| 20260904172901 | 87 | 145 | 2.0 | 8.0 | 0.00 | 0.03 | 0.03 | 59 | 1014.3 |
| 20260904172645 | 87 | 211 | 2.0 | 8.0 | 0.00 | 0.03 | 0.03 | 58 | 1014.3 |
| 20260904171902 | 87 | 176 | 2.0 | 8.0 | 0.00 | 0.03 | 0.03 | 64 | 1014.3 |
| 20260904171402 | 87 | 54 | 2.0 | 5.0 | 0.00 | 0.03 | 0.03 | 67 | 1014.2 |
| 20260904170901 | 87 | 245 | 2.0 | 5.0 | 0.00 | 0.03 | 0.03 | 66 | 1014.3 |
| 20260904170400 | 87 | 200 | 2.0 | 6.0 | 0.00 | 0.03 | 0.03 | 67 | 1014.3 |
| 20260904170145 | 86 | 175 | 2.0 | 6.0 | 0.00 | 0.03 | 0.03 | 68 | 1014.4 |
| 20260904165402 | 86 | 178 | 2.0 | 5.0 | 0.00 | 0.03 | 0.03 | 69 | 1014.4 |
| 20260904164901 | 86 | 212 | 2.0 | 6.0 | 0.00 | 0.03 | 0.03 | 69 | 1014.4 |
| 20260904164400 | 86 | 233 | 2.0 | 6.0 | 0.00 | 0.03 | 0.03 | 69 | 1014.5 |
| 20260904163900 | 86 | 194 | 3.0 | 8.0 | 0.00 | 0.03 | 0.03 | 68 | 1014.4 |
| 20260904163400 | 86 | 268 | 3.0 | 8.0 | 0.00 | 0.03 | 0.03 | 69 | 1014.4 |
| 20260904162901 | 86 | 73 | 2.0 | 5.0 | 0.00 | 0.03 | 0.03 | 70 | 1014.4 |
| 20260904162401 | 86 | 296 | 2.0 | 6.0 | 0.00 | 0.03 | 0.03 | 72 | 1014.4 |
| 20260904161900 | 85 | 180 | 2.0 | 6.0 | 0.00 | 0.03 | 0.03 | 72 | 1014.4 |
| 20260904161646 | 85 | 218 | 2.0 | 5.0 | 0.00 | 0.03 | 0.03 | 73 | 1014.4 |
| 20260904160902 | 85 | 181 | 2.0 | 7.0 | 0.00 | 0.03 | 0.03 | 72 | 1014.3 |
| 20260904160401 | 85 | 185 | 2.0 | 7.0 | 0.00 | 0.03 | 0.03 | 72 | 1014.3 |
| 20260904155902 | 85 | 237 | 3.0 | 7.0 | 0.00 | 0.03 | 0.03 | 72 | 1014.2 |
| 20260904155401 | 85 | 208 | 3.0 | 7.0 | 0.00 | 0.03 | 0.03 | 73 | 1014.2 |
| 20260904154901 | 84 | 288 | 3.0 | 7.0 | 0.00 | 0.03 | 0.03 | 73 | 1014.3 |
| 20260904154400 | 84 | 189 | 4.0 | 7.0 | 0.00 | 0.03 | 0.03 | 74 | 1014.3 |
| 20260904153901 | 84 | 227 | 4.0 | 9.0 | 0.00 | 0.03 | 0.03 | 75 | 1014.2 |
| 20260904153402 | 84 | 238 | 3.0 | 9.0 | 0.00 | 0.03 | 0.03 | 74 | 1014.1 |
| 20260904152901 | 84 | 226 | 4.0 | 6.0 | 0.00 | 0.03 | 0.03 | 75 | 1014.0 |
| 20260904152400 | 84 | 6 | 4.0 | 8.0 | 0.00 | 0.03 | 0.03 | 76 | 1014.0 |
| 20260904151901 | 85 | 141 | 4.0 | 9.0 | 0.00 | 0.03 | 0.03 | 75 | 1014.0 |
| 20260904151402 | 85 | 178 | 4.0 | 9.0 | 0.00 | 0.03 | 0.03 | 76 | 1013.9 |
| 20260904150902 | 85 | 238 | 3.0 | 7.0 | 0.00 | 0.03 | 0.03 | 76 | 1013.9 |
| 20260904150401 | 84 | 195 | 3.0 | 8.0 | 0.00 | 0.03 | 0.03 | 77 | 1013.9 |
| 20260904145902 | 83 | 254 | 4.0 | 8.0 | 0.00 | 0.03 | 0.03 | 78 | 1013.9 |
| 20260904145402 | 82 | 205 | 4.0 | 8.0 | 0.00 | 0.03 | 0.03 | 80 | 1013.9 |
| 20260904144902 | 82 | 229 | 4.0 | 7.0 | 0.00 | 0.03 | 0.03 | 82 | 1013.9 |
| 20260904144402 | 82 | 191 | 4.0 | 7.0 | 0.00 | 0.03 | 0.03 | 82 | 1013.9 |
| 20260904143902 | 82 | 261 | 3.0 | 7.0 | 0.00 | 0.03 | 0.03 | 84 | 1013.9 |
| 20260904143403 | 81 | 204 | 3.0 | 5.0 | 0.00 | 0.03 | 0.03 | 85 | 1013.8 |
| 20260904142903 | 81 | 252 | 3.0 | 6.0 | 0.00 | 0.03 | 0.03 | 86 | 1013.8 |
| 20260904142402 | 81 | 279 | 3.0 | 6.0 | 0.00 | 0.03 | 0.03 | 87 | 1013.8 |
| 20260904141902 | 81 | 231 | 3.0 | 6.0 | 0.00 | 0.03 | 0.03 | 87 | 1013.9 |
| 20260904141401 | 81 | 225 | 3.0 | 6.0 | 0.00 | 0.03 | 0.03 | 88 | 1013.8 |
| 20260904140902 | 81 | 240 | 2.0 | 5.0 | 0.00 | 0.03 | 0.03 | 89 | 1013.8 |
| 20260904140402 | 81 | 217 | 3.0 | 6.0 | 0.00 | 0.03 | 0.03 | 89 | 1013.8 |
| 20260904140146 | 80 | 249 | 3.0 | 6.0 | 0.00 | 0.03 | 0.03 | 89 | 1013.7 |
| 20260904135402 | 80 | 223 | 2.0 | 4.0 | 0.00 | 0.03 | 0.03 | 90 | 1013.7 |
| 20260904134902 | 80 | 288 | 2.0 | 4.0 | 0.00 | 0.03 | 0.03 | 91 | 1013.7 |
| 20260904134401 | 80 | 237 | 3.0 | 5.0 | 0.00 | 0.03 | 0.03 | 91 | 1013.6 |
| 20260904133849 | 80 | 225 | 3.0 | 6.0 | 0.00 | 0.03 | 0.03 | 91 | 1013.6 |
| 20260904133351 | 80 | 233 | 3.0 | 6.0 | 0.00 | 0.03 | 0.03 | 92 | 1013.5 |
| 20260904132849 | 80 | 248 | 2.0 | 4.0 | 0.00 | 0.03 | 0.03 | 92 | 1013.6 |
| 20260904132621 | 79 | 225 | 2.0 | 4.0 | 0.00 | 0.03 | 0.03 | 92 | 1013.5 |
| 20260904131850 | 79 | 261 | 3.0 | 4.0 | 0.01 | 0.03 | 0.03 | 92 | 1013.5 |
| 20260904131617 | 79 | 218 | 2.0 | 4.0 | 0.01 | 0.03 | 0.03 | 92 | 1013.6 |
| 20260904130850 | 79 | 225 | 3.0 | 6.0 | 0.02 | 0.03 | 0.03 | 93 | 1013.6 |
| 20260904130351 | 79 | 0 | 3.0 | 6.0 | 0.02 | 0.03 | 0.03 | 93 | 1013.5 |
| 20260904125851 | 79 | 234 | 3.0 | 6.0 | 0.02 | 0.03 | 0.03 | 93 | 1013.4 |
| 20260904125352 | 79 | 216 | 3.0 | 6.0 | 0.02 | 0.03 | 0.03 | 93 | 1013.4 |
| 20260904124851 | 79 | 230 | 3.0 | 5.0 | 0.02 | 0.03 | 0.03 | 93 | 1013.4 |
| 20260904124349 | 79 | 229 | 3.0 | 4.0 | 0.02 | 0.02 | 0.02 | 93 | 1013.4 |
| 20260904123850 | 79 | 246 | 2.0 | 4.0 | 0.02 | 0.02 | 0.02 | 93 | 1013.4 |
| 20260904123349 | 79 | 206 | 1.0 | 3.0 | 0.02 | 0.02 | 0.02 | 93 | 1013.5 |
| 20260904122850 | 79 | 202 | 1.0 | 2.0 | 0.02 | 0.02 | 0.02 | 92 | 1013.5 |
| 20260904122621 | 79 | 216 | 1.0 | 3.0 | 0.02 | 0.02 | 0.02 | 92 | 1013.5 |
| 20260904121850 | 79 | 122 | 1.0 | 3.0 | 0.02 | 0.02 | 0.02 | 92 | 1013.5 |
| 20260904121337 | 79 | 121 | 2.0 | 3.0 | 0.02 | 0.02 | 0.01 | 91 | 1013.4 |
| 20260904120837 | 79 | 100 | 2.0 | 4.0 | 0.01 | 0.01 | 0.01 | 91 | 1013.3 |
| 20260904120608 | 79 | 157 | 2.0 | 4.0 | 0.01 | 0.01 | 0.01 | 91 | 1013.2 |
| 20260904115837 | 79 | 244 | 2.0 | 3.0 | 0.01 | 0.01 | 0.01 | 91 | 1013.2 |
| 20260904115337 | 79 | 144 | 2.0 | 3.0 | 0.01 | 0.01 | 0.01 | 91 | 1013.2 |
| 20260904114837 | 79 | 284 | 2.0 | 4.0 | 0.00 | 0.00 | 0.00 | 90 | 1013.2 |
| 20260904114336 | 79 | 108 | 2.0 | 4.0 | 0.00 | 0.00 | 0.00 | 90 | 1013.1 |
| 20260904113837 | 79 | 137 | 2.0 | 5.0 | 0.00 | 0.00 | 0.00 | 90 | 1013.0 |
| 20260904113329 | 79 | 309 | 2.0 | 5.0 | 0.00 | 0.00 | 0.00 | 90 | 1012.9 |
| 20260904112829 | 79 | 171 | 2.0 | 5.0 | 0.00 | 0.00 | 0.00 | 90 | 1012.9 |
| 20260904112331 | 79 | 152 | 2.0 | 5.0 | 0.00 | 0.00 | 0.00 | 90 | 1012.9 |
| 20260904111830 | 79 | 89 | 2.0 | 4.0 | 0.00 | 0.00 | 0.00 | 90 | 1012.8 |
| 20260904111329 | 79 | 146 | 2.0 | 4.0 | 0.00 | 0.00 | 0.00 | 89 | 1012.8 |
| 20260904110830 | 79 | 274 | 2.0 | 4.0 | 0.00 | 0.00 | 0.00 | 89 | 1012.7 |
| 20260904110330 | 79 | 338 | 2.0 | 4.0 | 0.00 | 0.00 | 0.00 | 89 | 1012.7 |
| 20260904105822 | 79 | 299 | 2.0 | 4.0 | 0.00 | 0.00 | 0.00 | 89 | 1012.7 |
| 20260904105327 | 79 | 95 | 2.0 | 4.0 | 0.00 | 0.00 | 0.00 | 89 | 1012.6 |
| 20260904105322 | 79 | 305 | 2.0 | 4.0 | 0.00 | 0.00 | 0.00 | 89 | 1012.7 |
| 20260904104323 | 79 | 125 | 2.0 | 6.0 | 0.00 | 0.00 | 0.00 | 89 | 1012.6 |
| 20260904103823 | 79 | 131 | 2.0 | 6.0 | 0.00 | 0.00 | 0.00 | 88 | 1012.6 |
| 20260904103334 | 79 | 84 | 2.0 | 4.0 | 0.00 | 0.00 | 0.00 | 88 | 1012.5 |
| 20260904103326 | 79 | 70 | 2.0 | 4.0 | 0.00 | 0.00 | 0.00 | 88 | 1012.5 |
| 20260904103322 | 79 | 131 | 2.0 | 4.0 | 0.00 | 0.00 | 0.00 | 88 | 1012.5 |
| 20260904101823 | 79 | 170 | 2.0 | 4.0 | 0.00 | 0.00 | 0.00 | 88 | 1012.6 |
| 20260904101323 | 79 | 54 | 2.0 | 4.0 | 0.00 | 0.00 | 0.00 | 87 | 1012.5 |
| 20260904101038 | 79 | 276 | 2.0 | 4.0 | 0.00 | 0.00 | 0.00 | 87 | 1012.4 |
| 20260904100302 | 80 | 317 | 1.0 | 3.0 | 0.00 | 0.00 | 0.00 | 87 | 1012.4 |
| 20260904095803 | 80 | 78 | 1.0 | 3.0 | 0.00 | 0.00 | 0.00 | 87 | 1012.3 |
| 20260904095305 | 80 | 147 | 1.0 | 4.0 | 0.00 | 0.00 | 0.00 | 87 | 1012.3 |
| 20260904094802 | 80 | 134 | 1.0 | 4.0 | 0.00 | 0.00 | 0.00 | 87 | 1012.2 |
| 20260904094302 | 80 | 333 | 1.0 | 4.0 | 0.00 | 0.00 | 0.00 | 86 | 1012.3 |
| 20260904093802 | 80 | 73 | 1.0 | 4.0 | 0.00 | 0.00 | 0.00 | 86 | 1012.3 |
| 20260904093301 | 80 | 232 | 1.0 | 3.0 | 0.00 | 0.00 | 0.00 | 86 | 1012.3 |
| 20260904092803 | 80 | 115 | 2.0 | 4.0 | 0.00 | 0.00 | 0.00 | 86 | 1012.2 |
| 20260904092302 | 80 | 117 | 1.0 | 4.0 | 0.00 | 0.00 | 0.00 | 86 | 1012.2 |
| 20260904091802 | 80 | 199 | 1.0 | 3.0 | 0.00 | 0.00 | 0.00 | 86 | 1012.2 |
| 20260904091302 | 80 | 218 | 2.0 | 3.0 | 0.00 | 0.00 | 0.00 | 86 | 1012.2 |
| 20260904090802 | 80 | 45 | 2.0 | 3.0 | 0.00 | 0.00 | 0.00 | 86 | 1012.2 |
| 20260904090301 | 80 | 168 | 1.0 | 3.0 | 0.00 | 0.00 | 0.00 | 85 | 1012.2 |
| 20260904085803 | 80 | 109 | 1.0 | 2.0 | 0.00 | 0.00 | 0.00 | 85 | 1012.3 |
| 20260904085305 | 80 | 239 | 1.0 | 3.0 | 0.00 | 0.00 | 0.00 | 85 | 1012.3 |
| 20260904084802 | 80 | 288 | 2.0 | 4.0 | 0.00 | 0.00 | 0.00 | 85 | 1012.4 |
| 20260904084302 | 80 | 119 | 2.0 | 4.0 | 0.00 | 0.00 | 0.00 | 85 | 1012.3 |
| 20260904083801 | 80 | 194 | 1.0 | 3.0 | 0.00 | 0.00 | 0.00 | 85 | 1012.3 |
| 20260904083301 | 80 | 161 | 1.0 | 3.0 | 0.00 | 0.00 | 0.00 | 85 | 1012.3 |
| 20260904083034 | 80 | 113 | 1.0 | 3.0 | 0.00 | 0.00 | 0.00 | 85 | 1012.3 |
| 20260904082305 | 80 | 305 | 1.0 | 4.0 | 0.00 | 0.00 | 0.00 | 84 | 1012.2 |
| 20260904081802 | 80 | 281 | 1.0 | 4.0 | 0.00 | 0.00 | 0.00 | 84 | 1012.3 |
| 20260904081535 | 80 | 155 | 1.0 | 3.0 | 0.00 | 0.00 | 0.00 | 84 | 1012.3 |
| 20260904080802 | 80 | 245 | 1.0 | 3.0 | 0.00 | 0.00 | 0.00 | 84 | 1012.3 |
| 20260904080549 | 80 | 80 | 1.0 | 3.0 | 0.00 | 0.00 | 0.00 | 84 | 1012.2 |
| 20260904080309 | 80 | 319 | 1.0 | 3.0 | 0.00 | 0.00 | 0.00 | 84 | 1012.3 |
| 20260904075306 | 80 | 241 | 1.0 | 4.0 | 0.00 | 0.00 | 0.00 | 84 | 1012.2 |
| 20260904074802 | 80 | 130 | 1.0 | 4.0 | 0.00 | 0.00 | 0.00 | 84 | 1012.2 |
| 20260904074302 | 80 | 209 | 1.0 | 4.0 | 0.00 | 0.00 | 0.00 | 84 | 1012.2 |
| 20260904073802 | 80 | 117 | 1.0 | 3.0 | 0.00 | 0.00 | 0.00 | 83 | 1012.3 |
| 20260904073302 | 80 | 255 | 2.0 | 5.0 | 0.00 | 0.00 | 0.00 | 83 | 1012.3 |
| 20260904072802 | 80 | 168 | 2.0 | 5.0 | 0.00 | 0.00 | 0.00 | 83 | 1012.4 |
| 20260904072532 | 80 | 312 | 2.0 | 4.0 | 0.00 | 0.00 | 0.00 | 83 | 1012.4 |
| 20260904071802 | 80 | 84 | 2.0 | 4.0 | 0.00 | 0.00 | 0.00 | 83 | 1012.4 |
| 20260904071301 | 80 | 220 | 2.0 | 4.0 | 0.00 | 0.00 | 0.00 | 83 | 1012.5 |
| 20260904070804 | 80 | 264 | 1.0 | 4.0 | 0.00 | 0.00 | 0.00 | 83 | 1012.6 |
| 20260904070302 | 80 | 247 | 2.0 | 5.0 | 0.00 | 0.00 | 0.00 | 83 | 1012.6 |
| 20260904065802 | 80 | 151 | 2.0 | 5.0 | 0.00 | 0.00 | 0.00 | 83 | 1012.7 |
| 20260904065306 | 80 | 281 | 2.0 | 4.0 | 0.00 | 0.00 | 0.00 | 83 | 1012.7 |
| 20260904064802 | 80 | 296 | 2.0 | 3.0 | 0.00 | 0.00 | 0.00 | 83 | 1012.6 |
| 20260904064302 | 80 | 206 | 2.0 | 3.0 | 0.00 | 0.00 | 0.00 | 83 | 1012.6 |
| 20260904064029 | 80 | 9 | 2.0 | 5.0 | 0.00 | 0.00 | 0.00 | 83 | 1012.6 |
| 20260904063301 | 80 | 63 | 2.0 | 5.0 | 0.00 | 0.00 | 0.00 | 82 | 1012.6 |
| 20260904062802 | 80 | 235 | 2.0 | 4.0 | 0.00 | 0.00 | 0.00 | 82 | 1012.6 |
| 20260904062305 | 80 | 257 | 2.0 | 4.0 | 0.00 | 0.00 | 0.00 | 82 | 1012.6 |
| 20260904061802 | 80 | 96 | 2.0 | 5.0 | 0.00 | 0.00 | 0.00 | 82 | 1012.6 |
| 20260904061302 | 80 | 92 | 2.0 | 5.0 | 0.00 | 0.00 | 0.00 | 82 | 1012.6 |
| 20260904060802 | 80 | 151 | 2.0 | 4.0 | 0.00 | 0.00 | 0.00 | 82 | 1012.6 |
| 20260904060528 | 80 | 173 | 2.0 | 6.0 | 0.00 | 0.00 | 0.00 | 82 | 1012.6 |
| 20260904060042 | 81 | 274 | 3.0 | 6.0 | 0.00 | 0.00 | 0.00 | 82 | 1012.6 |
| 20260904055306 | 81 | 152 | 3.0 | 6.0 | 0.00 | 0.00 | 0.00 | 82 | 1012.6 |
| 20260904054802 | 81 | 141 | 2.0 | 6.0 | 0.00 | 0.00 | 0.00 | 82 | 1012.5 |
| 20260904054301 | 81 | 223 | 2.0 | 6.0 | 0.00 | 0.00 | 0.00 | 82 | 1012.5 |
| 20260904053802 | 81 | 131 | 2.0 | 7.0 | 0.00 | 0.00 | 0.00 | 81 | 1012.5 |
| 20260904053301 | 81 | 235 | 2.0 | 7.0 | 0.00 | 0.00 | 0.00 | 81 | 1012.5 |
| 20260904052802 | 81 | 238 | 2.0 | 5.0 | 0.00 | 0.00 | 0.00 | 81 | 1012.6 |
| 20260904052306 | 81 | 226 | 3.0 | 6.0 | 0.00 | 0.00 | 0.00 | 81 | 1012.5 |
| 20260904051802 | 81 | 217 | 3.0 | 6.0 | 0.00 | 0.00 | 0.00 | 81 | 1012.4 |
| 20260904051301 | 81 | 165 | 3.0 | 5.0 | 0.00 | 0.00 | 0.00 | 81 | 1012.4 |
| 20260904051028 | 81 | 291 | 2.0 | 5.0 | 0.00 | 0.00 | 0.00 | 81 | 1012.4 |
| 20260904050304 | 81 | 138 | 2.0 | 6.0 | 0.00 | 0.00 | 0.00 | 81 | 1012.4 |
| 20260904045802 | 81 | 120 | 2.0 | 6.0 | 0.00 | 0.00 | 0.00 | 81 | 1012.3 |
| 20260904045306 | 81 | 81 | 3.0 | 5.0 | 0.00 | 0.00 | 0.00 | 81 | 1012.4 |
| 20260904044802 | 81 | 173 | 3.0 | 6.0 | 0.00 | 0.00 | 0.00 | 81 | 1012.4 |
| 20260904044302 | 81 | 273 | 2.0 | 6.0 | 0.00 | 0.00 | 0.00 | 81 | 1012.4 |
| 20260904043801 | 81 | 84 | 3.0 | 7.0 | 0.00 | 0.00 | 0.00 | 81 | 1012.4 |
| 20260904043301 | 81 | 298 | 3.0 | 7.0 | 0.00 | 0.00 | 0.00 | 81 | 1012.3 |
| 20260904042802 | 81 | 236 | 2.0 | 7.0 | 0.00 | 0.00 | 0.00 | 80 | 1012.4 |
| 20260904042305 | 81 | 142 | 3.0 | 7.0 | 0.00 | 0.00 | 0.00 | 80 | 1012.4 |
| 20260904041802 | 81 | 127 | 2.0 | 6.0 | 0.00 | 0.00 | 0.00 | 80 | 1012.3 |
| 20260904041540 | 81 | 88 | 2.0 | 7.0 | 0.00 | 0.00 | 0.00 | 79 | 1012.4 |
| 20260904040800 | 81 | 153 | 3.0 | 8.0 | 0.00 | 0.00 | 0.00 | 79 | 1012.4 |
| 20260904040301 | 81 | 62 | 3.0 | 8.0 | 0.00 | 0.00 | 0.00 | 79 | 1012.4 |
| 20260904035801 | 81 | 153 | 3.0 | 7.0 | 0.00 | 0.00 | 0.00 | 79 | 1012.3 |
| 20260904035301 | 81 | 118 | 3.0 | 7.0 | 0.00 | 0.00 | 0.00 | 78 | 1012.2 |
| 20260904034801 | 81 | 295 | 3.0 | 7.0 | 0.00 | 0.00 | 0.00 | 78 | 1012.2 |
| 20260904034548 | 81 | 299 | 3.0 | 7.0 | 0.00 | 0.00 | 0.00 | 78 | 1012.2 |
| 20260904034046 | 81 | 99 | 3.0 | 7.0 | 0.00 | 0.00 | 0.00 | 77 | 1012.2 |
| 20260904033300 | 81 | 304 | 3.0 | 8.0 | 0.00 | 0.00 | 0.00 | 77 | 1012.2 |
| 20260904032801 | 81 | 201 | 3.0 | 8.0 | 0.00 | 0.00 | 0.00 | 77 | 1012.1 |